Time;durP1;ratioP1;P1;durP2;ratioP2;P2;SDS_P1;SDS_P2;PMS_P1;PMS_P2;Temp;Humidity;BMP_temperature;BMP_pressure;BME280_temperature;BME280_humidity;BME280_pressure;Samples;Min_cycle;Max_cycle;Signal;HPM_P1;HPM_P2
2024/04/06 00:01:03;;;;;;;0.30;0.30;;;18.50;95.60;20.40;100019.00;;;;5043990;28;20201;-68
2024/04/06 00:03:30;;;;;;;0.30;0.30;;;18.50;95.60;20.40;100017.00;;;;5043902;28;20303;-69
2024/04/06 00:05:56;;;;;;;0.30;0.30;;;18.50;95.60;20.40;100007.00;;;;5043307;28;20262;-68
2024/04/06 00:08:24;;;;;;;0.30;0.30;;;18.50;95.60;20.40;100007.00;;;;5044486;28;20240;-68
2024/04/06 00:10:51;;;;;;;0.30;0.30;;;18.50;95.70;20.50;100009.00;;;;5041405;28;20342;-68
2024/04/06 00:13:18;;;;;;;0.30;0.30;;;18.50;95.60;20.50;100002.00;;;;5039288;28;20281;-67
2024/04/06 00:15:44;;;;;;;0.30;0.30;;;18.50;95.60;20.50;100007.00;;;;5043374;28;20239;-69
2024/04/06 00:18:10;;;;;;;0.38;0.38;;;18.50;95.60;20.40;99980.00;;;;5037274;28;20664;-67
2024/04/06 00:20:37;;;;;;;0.40;0.40;;;18.50;95.60;20.40;100006.00;;;;5045125;28;20210;-69
2024/04/06 00:23:04;;;;;;;0.30;0.30;;;18.40;95.60;20.30;100001.00;;;;5036268;28;20231;-69
2024/04/06 00:25:32;;;;;;;0.30;0.30;;;18.40;95.60;20.30;100005.00;;;;5043723;28;20680;-69
2024/04/06 00:27:59;;;;;;;0.30;0.30;;;18.40;95.70;20.20;100001.00;;;;5037802;28;20207;-68
2024/04/06 00:30:25;;;;;;;0.40;0.40;;;18.40;95.70;20.20;100003.00;;;;5042981;28;20211;-66
2024/04/06 00:32:52;;;;;;;0.30;0.30;;;18.30;95.70;20.20;100006.00;;;;5038856;28;20239;-68
2024/04/06 00:35:18;;;;;;;0.30;0.30;;;18.30;95.80;20.10;99997.00;;;;5041926;28;20594;-67
2024/04/06 00:37:45;;;;;;;0.40;0.40;;;18.30;95.80;20.10;100002.00;;;;5040458;28;20793;-69
2024/04/06 00:40:11;;;;;;;0.30;0.30;;;18.20;95.80;20.10;99999.00;;;;5044205;28;20390;-68
2024/04/06 00:42:40;;;;;;;0.30;0.30;;;18.20;95.90;20.10;100002.00;;;;5038569;28;20701;-65
2024/04/06 00:45:08;;;;;;;0.30;0.30;;;18.20;95.90;20.00;100005.00;;;;5043148;28;20221;-67
2024/04/06 00:47:36;;;;;;;0.30;0.30;;;18.20;95.90;20.00;99980.00;;;;5038798;28;20255;-69
2024/04/06 00:50:05;;;;;;;0.30;0.30;;;18.20;95.90;20.00;99983.00;;;;5042045;28;20205;-68
2024/04/06 00:52:33;;;;;;;0.30;0.30;;;18.20;96.00;20.00;99966.00;;;;5039737;28;20212;-67
2024/04/06 00:55:00;;;;;;;0.30;0.30;;;18.20;96.00;19.90;99978.00;;;;5040006;28;20243;-68
2024/04/06 00:57:27;;;;;;;0.30;0.30;;;18.10;95.90;19.90;99983.00;;;;5034877;28;20287;-68
2024/04/06 00:59:54;;;;;;;0.30;0.30;;;18.10;95.90;19.90;99991.00;;;;5044187;28;20217;-69
2024/04/06 01:02:22;;;;;;;0.30;0.30;;;18.10;96.00;19.80;99984.00;;;;5041822;28;20303;-62
2024/04/06 01:04:48;;;;;;;0.40;0.40;;;18.00;96.00;19.90;99984.00;;;;5047007;28;20207;-63
2024/04/06 01:07:15;;;;;;;0.30;0.30;;;18.00;96.00;19.80;99976.00;;;;5040751;28;20559;-65
2024/04/06 01:09:41;;;;;;;0.30;0.30;;;18.00;96.10;19.90;99974.00;;;;5043068;28;20206;-63
2024/04/06 01:12:09;;;;;;;0.30;0.30;;;18.00;96.10;19.80;99967.00;;;;5038676;28;20627;-63
2024/04/06 01:14:35;;;;;;;0.35;0.35;;;18.00;96.10;19.80;99973.00;;;;5046041;28;20231;-63
2024/04/06 01:17:03;;;;;;;0.30;0.30;;;18.00;96.10;19.70;99982.00;;;;5039065;28;20244;-62
2024/04/06 01:19:30;;;;;;;0.30;0.30;;;17.90;96.10;19.70;99990.00;;;;5048356;28;20215;-63
2024/04/06 01:21:57;;;;;;;0.30;0.30;;;17.90;96.00;19.60;99987.00;;;;5038716;28;20220;-64
2024/04/06 01:24:25;;;;;;;0.30;0.30;;;17.80;96.10;19.60;99989.00;;;;5042450;28;20289;-63
2024/04/06 01:26:52;;;;;;;0.32;0.32;;;17.80;96.20;19.50;99985.00;;;;5034331;28;20208;-63
2024/04/06 01:29:19;;;;;;;0.30;0.30;;;17.70;96.10;19.40;99979.00;;;;5041408;28;20367;-63
2024/04/06 01:31:46;;;;;;;0.30;0.30;;;17.70;96.10;19.40;99982.00;;;;5035293;28;20212;-63
2024/04/06 01:34:13;;;;;;;0.30;0.30;;;17.70;96.10;19.30;99978.00;;;;5037894;28;20482;-62
2024/04/06 01:36:40;;;;;;;0.30;0.30;;;17.60;96.10;19.30;99966.00;;;;5042140;28;20363;-64
2024/04/06 01:39:07;;;;;;;0.30;0.30;;;17.60;96.20;19.30;99979.00;;;;5041858;28;20957;-62
2024/04/06 01:41:36;;;;;;;0.38;0.38;;;17.50;96.20;19.20;99979.00;;;;5037222;28;20231;-62
2024/04/06 01:44:02;;;;;;;0.30;0.30;;;17.50;96.40;19.20;99984.00;;;;5041120;28;20207;-62
2024/04/06 01:46:29;;;;;;;0.30;0.30;;;17.40;96.60;19.10;99964.00;;;;5040216;28;20235;-64
2024/04/06 01:48:56;;;;;;;0.40;0.40;;;17.40;96.40;19.10;99975.00;;;;5044542;28;20522;-62
2024/04/06 01:51:23;;;;;;;0.30;0.30;;;17.40;96.40;19.10;99984.00;;;;5034739;28;20213;-63
2024/04/06 01:53:49;;;;;;;0.40;0.40;;;17.40;96.50;19.10;99989.00;;;;5041713;28;20291;-63
2024/04/06 01:56:16;;;;;;;0.30;0.30;;;17.40;96.50;19.00;99986.00;;;;5037808;28;20308;-63
2024/04/06 01:58:44;;;;;;;0.30;0.30;;;17.40;96.50;19.00;99998.00;;;;5039955;28;20732;-63
2024/04/06 02:01:12;;;;;;;0.30;0.30;;;17.30;96.50;19.00;99947.00;;;;5036431;28;20645;-63
2024/04/06 02:03:38;;;;;;;0.30;0.30;;;17.30;96.50;19.00;99995.00;;;;5041262;28;20230;-62
2024/04/06 02:06:08;;;;;;;0.30;0.30;;;17.30;96.50;19.00;99996.00;;;;5040099;28;21095;-63
2024/04/06 02:08:35;;;;;;;0.30;0.30;;;17.30;96.50;19.00;99976.00;;;;5046027;28;20224;-62
2024/04/06 02:11:02;;;;;;;0.30;0.30;;;17.20;96.40;18.90;100016.00;;;;5043492;28;20561;-62
2024/04/06 02:13:28;;;;;;;0.40;0.40;;;17.20;96.40;18.90;100007.00;;;;5041515;28;20215;-63
2024/04/06 02:15:56;;;;;;;0.30;0.30;;;17.10;96.40;18.80;100008.00;;;;5040264;28;20651;-63
2024/04/06 02:18:23;;;;;;;0.30;0.30;;;17.20;96.60;18.80;99999.00;;;;5046362;28;20208;-62
2024/04/06 02:20:50;;;;;;;0.40;0.40;;;17.10;96.50;18.80;99999.00;;;;5039633;28;20259;-62
2024/04/06 02:23:16;;;;;;;0.30;0.30;;;17.10;96.50;18.70;99989.00;;;;5046229;28;20790;-67
2024/04/06 02:25:43;;;;;;;0.30;0.30;;;17.00;96.50;18.70;99983.00;;;;5050073;28;20220;-68
2024/04/06 02:28:09;;;;;;;0.30;0.30;;;17.00;96.50;18.60;99981.00;;;;5044085;28;20208;-68
2024/04/06 02:30:37;;;;;;;0.30;0.30;;;17.00;96.60;18.60;99982.00;;;;5041599;28;20259;-67
2024/04/06 02:33:04;;;;;;;0.38;0.38;;;16.90;96.50;18.50;99974.00;;;;5041810;28;20209;-67
2024/04/06 02:35:31;;;;;;;0.30;0.30;;;16.90;96.50;18.50;99969.00;;;;5044821;28;20231;-67
2024/04/06 02:37:57;;;;;;;0.30;0.30;;;16.80;96.50;18.40;99960.00;;;;5038650;28;20593;-67
2024/04/06 02:40:24;;;;;;;0.35;0.35;;;16.80;96.80;18.30;99956.00;;;;5043727;28;20283;-68
2024/04/06 02:42:51;;;;;;;0.40;0.40;;;16.70;96.50;18.30;99973.00;;;;5041658;28;20215;-68
2024/04/06 02:45:18;;;;;;;0.30;0.30;;;16.70;96.50;18.20;99967.00;;;;5045840;28;20214;-68
2024/04/06 02:47:44;;;;;;;0.30;0.30;;;16.60;96.60;18.10;99954.00;;;;5044921;28;20530;-67
2024/04/06 02:50:13;;;;;;;0.32;0.32;;;16.60;96.70;18.10;99951.00;;;;5049166;28;20573;-68
2024/04/06 02:52:39;;;;;;;0.30;0.30;;;16.50;96.80;18.10;99952.00;;;;5042667;28;20208;-62
2024/04/06 02:55:06;;;;;;;0.40;0.40;;;16.50;96.80;18.10;99947.00;;;;5046059;28;20243;-62
2024/04/06 02:57:32;;;;;;;0.35;0.35;;;16.40;96.80;18.00;99920.00;;;;5038168;28;20208;-63
2024/04/06 02:59:59;;;;;;;0.40;0.40;;;16.40;96.80;18.00;99932.00;;;;5045594;28;20576;-63
2024/04/06 03:02:25;;;;;;;0.30;0.30;;;16.40;96.90;18.00;99930.00;;;;5038215;28;20602;-64
2024/04/06 03:04:53;;;;;;;0.38;0.38;;;16.40;96.90;17.90;99935.00;;;;5043141;28;20220;-63
2024/04/06 03:07:20;;;;;;;0.30;0.30;;;16.30;96.90;17.90;99946.00;;;;5036756;28;20219;-63
2024/04/06 03:09:47;;;;;;;0.30;0.30;;;16.30;97.10;17.90;99932.00;;;;5044369;28;20227;-63
2024/04/06 03:12:14;;;;;;;0.30;0.30;;;16.20;97.00;17.90;99930.00;;;;5036936;28;20683;-63
2024/04/06 03:14:41;;;;;;;0.32;0.32;;;16.20;97.00;17.90;99935.00;;;;5042981;28;20584;-63
2024/04/06 03:17:07;;;;;;;0.40;0.40;;;16.20;97.10;17.80;99929.00;;;;5039853;28;20208;-63
2024/04/06 03:19:34;;;;;;;0.30;0.30;;;16.20;97.10;17.80;99933.00;;;;5044849;28;20646;-63
2024/04/06 03:22:00;;;;;;;0.35;0.35;;;16.20;97.10;17.80;99944.00;;;;5038293;28;20208;-62
2024/04/06 03:24:28;;;;;;;0.30;0.30;;;16.10;97.00;17.80;99939.00;;;;5045634;28;20216;-63
2024/04/06 03:26:54;;;;;;;0.30;0.30;;;16.10;97.20;17.70;99937.00;;;;5039685;28;20833;-63
2024/04/06 03:29:22;;;;;;;0.30;0.30;;;16.10;97.30;17.70;99942.00;;;;5049137;28;20211;-62
2024/04/06 03:31:48;;;;;;;0.30;0.30;;;16.10;97.40;17.70;99943.00;;;;5040080;28;20295;-62
2024/04/06 03:34:15;;;;;;;0.30;0.30;;;16.10;97.50;17.80;99952.00;;;;5044796;28;20290;-63
2024/04/06 03:36:41;;;;;;;0.30;0.30;;;16.10;97.60;17.80;99958.00;;;;5038857;28;20311;-63
2024/04/06 03:39:08;;;;;;;0.32;0.32;;;16.10;97.60;17.80;99957.00;;;;5042486;28;20260;-63
2024/04/06 03:41:36;;;;;;;0.40;0.40;;;16.10;97.60;17.80;99951.00;;;;5038794;28;20208;-63
2024/04/06 03:44:04;;;;;;;0.30;0.30;;;16.20;97.60;17.90;99951.00;;;;5040159;28;20547;-62
2024/04/06 03:46:30;;;;;;;0.40;0.40;;;16.20;97.60;17.90;99940.00;;;;5038947;28;20524;-62
2024/04/06 03:48:57;;;;;;;0.30;0.30;;;16.20;97.60;17.90;99943.00;;;;5043794;28;20219;-63
2024/04/06 03:51:23;;;;;;;0.30;0.30;;;16.30;97.70;18.00;99947.00;;;;5041222;28;20234;-64
2024/04/06 03:53:51;;;;;;;0.30;0.30;;;16.30;97.70;18.00;99939.00;;;;5047988;28;20655;-63
2024/04/06 03:56:17;;;;;;;0.30;0.30;;;16.30;97.60;18.00;99941.00;;;;5036216;28;20270;-64
2024/04/06 03:58:45;;;;;;;0.30;0.30;;;16.40;97.70;18.00;99928.00;;;;5045261;28;20495;-63
2024/04/06 04:01:14;;;;;;;0.40;0.40;;;16.40;97.70;18.00;99925.00;;;;5039900;28;20324;-63
2024/04/06 04:03:41;;;;;;;0.30;0.30;;;16.40;97.60;18.00;99935.00;;;;5042775;28;20208;-63
2024/04/06 04:06:07;;;;;;;0.30;0.30;;;16.40;97.60;18.00;99936.00;;;;5038496;28;20244;-63
2024/04/06 04:08:35;;;;;;;0.30;0.30;;;16.40;97.60;18.00;99944.00;;;;5039206;28;20564;-62
2024/04/06 04:11:01;;;;;;;0.30;0.30;;;16.40;97.60;18.00;99947.00;;;;5036830;28;20213;-62
2024/04/06 04:13:29;;;;;;;0.30;0.30;;;16.40;97.60;18.00;99943.00;;;;5035680;28;20209;-63
2024/04/06 04:15:58;;;;;;;0.30;0.30;;;16.40;97.60;18.00;99934.00;;;;5036844;28;20236;-63
2024/04/06 04:18:25;;;;;;;0.30;0.30;;;16.40;97.60;18.00;99938.00;;;;5038301;28;20224;-63
2024/04/06 04:20:51;;;;;;;0.30;0.30;;;16.40;97.60;18.00;99921.00;;;;5041082;28;20220;-63
2024/04/06 04:23:18;;;;;;;0.30;0.30;;;16.40;97.60;17.90;99930.00;;;;5039528;28;20535;-63
2024/04/06 04:25:44;;;;;;;0.30;0.30;;;16.40;97.70;17.90;99928.00;;;;5037821;28;20353;-63
2024/04/06 04:28:11;;;;;;;0.30;0.30;;;16.40;97.70;17.90;99939.00;;;;5039241;28;20212;-63
2024/04/06 04:30:37;;;;;;;0.30;0.30;;;16.40;97.70;17.90;99924.00;;;;5040949;28;20602;-63
2024/04/06 04:33:06;;;;;;;0.30;0.30;;;16.40;97.80;17.90;99930.00;;;;5037836;28;20231;-62
2024/04/06 04:35:32;;;;;;;0.30;0.30;;;16.40;97.80;17.90;99931.00;;;;5041506;28;20310;-63
2024/04/06 04:37:59;;;;;;;0.30;0.30;;;16.40;97.80;17.90;99924.00;;;;5035708;28;20718;-63
2024/04/06 04:40:25;;;;;;;0.30;0.30;;;16.40;97.90;17.90;99927.00;;;;5040541;28;20323;-63
2024/04/06 04:42:52;;;;;;;0.30;0.30;;;16.40;97.90;17.90;99916.00;;;;5037904;28;20301;-67
2024/04/06 04:45:18;;;;;;;0.30;0.30;;;16.40;97.90;17.90;99915.00;;;;5038965;28;20205;-67
2024/04/06 04:47:45;;;;;;;0.40;0.40;;;16.40;97.80;17.90;99914.00;;;;5032820;28;20640;-67
2024/04/06 04:50:12;;;;;;;0.30;0.30;;;16.40;97.80;17.90;99899.00;;;;5040083;28;20215;-67
2024/04/06 04:52:39;;;;;;;0.30;0.30;;;16.40;97.80;17.80;99909.00;;;;5042567;28;20214;-62
2024/04/06 04:55:06;;;;;;;0.30;0.30;;;16.30;97.70;17.80;99912.00;;;;5040332;28;20710;-63
2024/04/06 04:57:33;;;;;;;0.30;0.30;;;16.30;97.70;17.80;99913.00;;;;5037649;28;20219;-62
2024/04/06 04:59:59;;;;;;;0.40;0.40;;;16.30;97.70;17.80;99920.00;;;;5042933;28;20208;-63
2024/04/06 05:02:26;;;;;;;0.30;0.30;;;16.30;97.70;17.80;99917.00;;;;5034497;28;20668;-63
2024/04/06 05:04:56;;;;;;;0.35;0.35;;;16.20;97.70;17.70;99912.00;;;;5042359;22;20818;-62
2024/04/06 05:07:24;;;;;;;0.30;0.30;;;16.20;97.70;17.70;99929.00;;;;4995567;28;20620;-62
2024/04/06 05:09:53;;;;;;;0.30;0.30;;;16.20;97.80;17.70;99931.00;;;;4994600;28;20256;-62
2024/04/06 05:12:22;;;;;;;0.32;0.32;;;16.20;97.70;17.70;99937.00;;;;4989923;28;20467;-68
2024/04/06 05:14:56;;;;;;;0.40;0.40;;;16.20;97.80;17.60;99910.00;;;;4991025;28;20297;-67
2024/04/06 05:17:25;;;;;;;0.30;0.30;;;16.20;98.00;17.70;99929.00;;;;4991463;28;20275;-67
2024/04/06 05:19:52;;;;;;;0.30;0.30;;;16.10;97.80;17.70;99945.00;;;;4991691;28;20221;-67
2024/04/06 05:22:19;;;;;;;0.30;0.30;;;16.10;97.80;17.70;99925.00;;;;4994924;28;20233;-67
2024/04/06 05:24:48;;;;;;;0.30;0.30;;;16.10;97.80;17.60;99920.00;;;;4989921;28;20233;-67
2024/04/06 05:27:16;;;;;;;0.30;0.30;;;16.10;97.90;17.60;99919.00;;;;4994446;28;20222;-66
2024/04/06 05:29:42;;;;;;;0.30;0.30;;;16.10;97.90;17.60;99910.00;;;;4991826;28;20548;-67
2024/04/06 05:32:10;;;;;;;0.30;0.30;;;16.10;98.00;17.60;99892.00;;;;4993669;28;20253;-68
2024/04/06 05:34:37;;;;;;;0.30;0.30;;;16.10;98.00;17.50;99891.00;;;;4994686;28;20638;-68
2024/04/06 05:37:05;;;;;;;0.30;0.30;;;16.10;98.10;17.60;99896.00;;;;4993108;28;20241;-65
2024/04/06 05:39:32;;;;;;;0.30;0.30;;;16.10;98.20;17.60;99904.00;;;;4993938;28;20244;-65
2024/04/06 05:42:01;;;;;;;0.30;0.30;;;16.10;98.20;17.70;99907.00;;;;4988242;28;20319;-67
2024/04/06 05:44:28;;;;;;;0.30;0.30;;;16.10;98.30;17.70;99895.00;;;;4994877;28;20241;-69
2024/04/06 05:46:56;;;;;;;0.30;0.30;;;16.10;98.30;17.70;99904.00;;;;4991957;28;20214;-65
2024/04/06 05:49:23;;;;;;;0.30;0.30;;;16.10;98.30;17.80;99884.00;;;;4991989;28;20702;-65
2024/04/06 05:51:50;;;;;;;0.30;0.30;;;16.20;98.30;17.80;99904.00;;;;4989966;28;20206;-66
2024/04/06 05:54:17;;;;;;;0.35;0.35;;;16.20;98.30;17.80;99913.00;;;;4993104;28;20375;-64
2024/04/06 05:56:45;;;;;;;0.30;0.30;;;16.30;98.40;17.80;99915.00;;;;4992326;28;20226;-66
2024/04/06 05:59:13;;;;;;;0.30;0.30;;;16.20;98.30;17.90;99912.00;;;;4992302;28;20217;-66
2024/04/06 06:01:41;;;;;;;0.30;0.30;;;16.30;98.40;17.90;99896.00;;;;4993228;28;20300;-65
2024/04/06 06:04:10;;;;;;;0.30;0.30;;;16.30;98.30;17.90;99916.00;;;;4992671;28;20222;-65
2024/04/06 06:06:38;;;;;;;0.30;0.30;;;16.30;98.30;17.90;99899.00;;;;4991782;28;20237;-65
2024/04/06 06:09:06;;;;;;;0.32;0.32;;;16.30;98.50;18.00;99894.00;;;;4993753;28;20214;-67
2024/04/06 06:11:33;;;;;;;0.40;0.40;;;16.40;98.40;18.00;99912.00;;;;4993542;28;20218;-66
2024/04/06 06:14:00;;;;;;;0.30;0.30;;;16.30;98.30;18.00;99913.00;;;;4990889;28;20288;-65
2024/04/06 06:16:29;;;;;;;0.30;0.30;;;16.40;98.40;18.00;99905.00;;;;4990502;28;20295;-66
2024/04/06 06:18:56;;;;;;;0.30;0.30;;;16.40;98.40;18.10;99916.00;;;;4988820;28;20214;-66
2024/04/06 06:21:24;;;;;;;0.30;0.30;;;16.40;98.40;18.10;99908.00;;;;4990562;28;20765;-66
2024/04/06 06:23:51;;;;;;;0.30;0.30;;;16.50;98.50;18.20;99915.00;;;;4991283;28;20533;-63
2024/04/06 06:26:19;;;;;;;0.30;0.30;;;16.50;98.50;18.20;99931.00;;;;4991984;28;20321;-62
2024/04/06 06:28:46;;;;;;;0.30;0.30;;;16.60;98.50;18.20;99922.00;;;;4994690;28;20313;-62
2024/04/06 06:31:14;;;;;;;0.30;0.30;;;16.60;98.60;18.30;99923.00;;;;4989215;28;20317;-62
2024/04/06 06:33:44;;;;;;;0.30;0.30;;;16.60;98.60;18.30;99935.00;;;;4992102;28;20701;-62
2024/04/06 06:36:14;;;;;;;0.30;0.30;;;16.70;98.70;18.40;99922.00;;;;4988333;28;20230;-62
2024/04/06 06:38:40;;;;;;;0.30;0.30;;;16.70;98.60;18.50;99918.00;;;;4994849;28;20214;-65
2024/04/06 06:41:09;;;;;;;0.30;0.30;;;16.80;98.70;18.50;99929.00;;;;4991452;28;20643;-61
2024/04/06 06:43:38;;;;;;;0.30;0.30;;;16.90;98.70;18.60;99912.00;;;;4987696;28;21147;-66
2024/04/06 06:46:05;;;;;;;0.30;0.30;;;16.90;98.60;18.60;99930.00;;;;4991004;28;20292;-67
2024/04/06 06:48:32;;;;;;;0.30;0.30;;;17.00;98.70;18.70;99928.00;;;;4989332;28;20669;-65
2024/04/06 06:51:05;;;;;;;0.30;0.30;;;17.00;98.60;18.80;99910.00;;;;4992418;28;20221;-66
2024/04/06 06:53:31;;;;;;;0.30;0.30;;;17.10;98.70;18.80;99912.00;;;;4989017;28;20216;-62
2024/04/06 06:55:59;;;;;;;0.30;0.30;;;17.10;98.60;18.90;99911.00;;;;4992961;28;20841;-62
2024/04/06 06:58:25;;;;;;;0.30;0.30;;;17.20;98.70;19.00;99917.00;;;;4992768;28;20289;-63
2024/04/06 07:00:53;;;;;;;0.30;0.30;;;17.20;98.70;19.00;99915.00;;;;4993829;28;20319;-63
2024/04/06 07:03:19;;;;;;;0.30;0.30;;;17.30;98.70;19.10;99903.00;;;;4995202;28;20284;-62
2024/04/06 07:05:46;;;;;;;0.30;0.30;;;17.40;98.70;19.20;99917.00;;;;4996641;28;20576;-63
2024/04/06 07:08:14;;;;;;;0.30;0.30;;;17.40;98.70;19.20;99925.00;;;;4992136;28;20210;-64
2024/04/06 07:10:42;;;;;;;0.30;0.30;;;17.50;98.80;19.30;99927.00;;;;4994016;28;20210;-63
2024/04/06 07:13:08;;;;;;;0.30;0.30;;;17.60;98.80;19.40;99918.00;;;;4992269;28;20265;-62
2024/04/06 07:15:38;;;;;;;0.30;0.30;;;17.70;98.80;19.50;99923.00;;;;4993420;28;20209;-64
2024/04/06 07:18:04;;;;;;;0.30;0.30;;;17.80;98.70;19.60;99923.00;;;;4997095;28;20313;-62
2024/04/06 07:20:32;;;;;;;0.30;0.30;;;17.80;98.70;19.70;99932.00;;;;4993701;28;20225;-62
2024/04/06 07:22:58;;;;;;;0.30;0.30;;;18.00;98.50;19.80;99939.00;;;;4993816;28;20218;-62
2024/04/06 07:25:27;;;;;;;0.30;0.30;;;18.00;98.50;19.80;99931.00;;;;4994804;28;20210;-62
2024/04/06 07:27:54;;;;;;;0.30;0.30;;;18.10;98.30;20.00;99892.00;;;;4995255;28;20210;-62
2024/04/06 07:30:21;;;;;;;0.30;0.30;;;18.30;98.20;20.10;99916.00;;;;4993495;28;20632;-63
2024/04/06 07:32:50;;;;;;;0.30;0.30;;;18.30;98.10;20.10;99918.00;;;;4993416;28;20301;-68
2024/04/06 07:35:17;;;;;;;0.30;0.30;;;18.40;98.00;20.30;99916.00;;;;4992197;28;20335;-65
2024/04/06 07:37:43;;;;;;;0.30;0.30;;;18.50;97.80;20.30;99913.00;;;;4993477;28;20233;-66
2024/04/06 07:40:11;;;;;;;0.20;0.20;;;18.60;97.70;20.40;99917.00;;;;4995399;28;20263;-66
2024/04/06 07:42:39;;;;;;;0.30;0.30;;;18.70;97.60;20.50;99897.00;;;;4999346;28;20220;-68
2024/04/06 07:45:07;;;;;;;0.30;0.30;;;18.80;97.50;20.60;99895.00;;;;4998205;28;20618;-67
2024/04/06 07:47:33;;;;;;;0.20;0.20;;;18.90;97.40;20.70;99891.00;;;;4997622;28;20552;-66
2024/04/06 07:50:00;;;;;;;0.20;0.20;;;18.90;97.30;20.80;99896.00;;;;4996329;28;20218;-65
2024/04/06 07:52:32;;;;;;;0.30;0.30;;;19.10;97.20;20.90;99900.00;;;;4998953;28;20243;-68
2024/04/06 07:54:59;;;;;;;0.30;0.30;;;19.10;97.00;21.00;99908.00;;;;4996111;28;20225;-67
2024/04/06 07:57:26;;;;;;;0.30;0.30;;;19.30;97.00;21.10;99884.00;;;;4998032;28;20236;-67
2024/04/06 07:59:55;;;;;;;0.20;0.20;;;19.30;96.80;21.20;99910.00;;;;4994166;28;20635;-67
2024/04/06 08:02:21;;;;;;;0.30;0.30;;;19.40;96.70;21.30;99907.00;;;;4994048;28;20214;-67
2024/04/06 08:04:50;;;;;;;0.30;0.30;;;19.50;96.70;21.40;99907.00;;;;4994388;28;20236;-68
2024/04/06 08:07:17;;;;;;;0.35;0.35;;;19.60;96.80;21.50;99901.00;;;;4998781;28;20292;-67
2024/04/06 08:09:44;;;;;;;0.40;0.40;;;19.70;96.60;21.60;99896.00;;;;4994302;28;20205;-68
2024/04/06 08:12:13;;;;;;;0.20;0.20;;;19.80;96.50;21.60;99906.00;;;;4996422;28;20269;-66
2024/04/06 08:14:41;;;;;;;0.40;0.40;;;19.90;96.40;21.70;99899.00;;;;4996316;28;20209;-66
2024/04/06 08:17:08;;;;;;;0.30;0.30;;;20.00;96.20;21.80;99902.00;;;;4994739;28;20229;-66
2024/04/06 08:19:35;;;;;;;0.30;0.30;;;20.00;96.10;21.90;99893.00;;;;4996607;28;20296;-66
2024/04/06 08:22:03;;;;;;;0.28;0.28;;;20.10;96.10;21.90;99901.00;;;;4994392;28;20214;-66
2024/04/06 08:24:34;;;;;;;0.30;0.30;;;20.20;95.80;22.00;99898.00;;;;4992869;28;20213;-66
2024/04/06 08:27:00;;;;;;;0.30;0.30;;;20.30;95.80;22.10;99908.00;;;;4995519;28;20265;-66
2024/04/06 08:29:27;;;;;;;0.30;0.30;;;20.40;95.80;22.20;99882.00;;;;4994206;28;20241;-66
2024/04/06 08:31:54;;;;;;;0.30;0.30;;;20.50;95.60;22.20;99874.00;;;;4993093;28;20216;-66
2024/04/06 08:34:22;;;;;;;0.30;0.30;;;20.50;95.40;22.30;99850.00;;;;4991663;28;20680;-67
2024/04/06 08:36:48;;;;;;;0.30;0.30;;;20.50;95.20;22.30;99878.00;;;;4996351;28;20279;-66
2024/04/06 08:39:16;;;;;;;0.30;0.30;;;20.60;95.20;22.40;99888.00;;;;4998818;28;20677;-67
2024/04/06 08:41:43;;;;;;;0.30;0.30;;;20.70;95.20;22.50;99881.00;;;;4996376;28;20708;-67
2024/04/06 08:44:13;;;;;;;0.30;0.30;;;20.70;95.00;22.50;99878.00;;;;4996329;28;20213;-67
2024/04/06 08:46:41;;;;;;;0.22;0.22;;;20.80;94.70;22.60;99876.00;;;;4994152;28;20413;-68
2024/04/06 08:49:10;;;;;;;0.30;0.30;;;20.90;94.70;22.60;99886.00;;;;4997298;28;20217;-67
2024/04/06 08:51:40;;;;;;;0.30;0.30;;;20.90;94.80;22.70;99892.00;;;;4994081;28;20214;-67
2024/04/06 08:54:10;;;;;;;0.30;0.30;;;21.00;94.50;22.80;99879.00;;;;4995859;28;20217;-67
2024/04/06 08:56:44;;;;;;;0.30;0.30;;;21.00;94.40;22.80;99888.00;;;;4992064;28;20595;-65
2024/04/06 08:59:11;;;;;;;0.30;0.30;;;21.10;94.00;22.90;99880.00;;;;4994808;28;20646;-66
2024/04/06 09:01:38;;;;;;;0.22;0.22;;;21.20;94.40;23.00;99905.00;;;;4995613;28;20211;-65
2024/04/06 09:04:05;;;;;;;0.30;0.30;;;21.30;94.70;23.10;99898.00;;;;4995063;28;20210;-66
2024/04/06 09:06:32;;;;;;;0.40;0.40;;;21.30;94.60;23.20;99902.00;;;;4993212;28;20244;-65
2024/04/06 09:09:02;;;;;;;0.30;0.30;;;21.40;94.30;23.30;99905.00;;;;4993964;28;20301;-65
2024/04/06 09:11:28;;;;;;;0.30;0.30;;;21.60;93.90;23.50;99897.00;;;;4992309;28;20634;-65
2024/04/06 09:14:02;;;;;;;0.30;0.30;;;21.60;94.10;23.60;99907.00;;;;4993474;28;20642;-66
2024/04/06 09:16:28;;;;;;;0.30;0.30;;;21.80;94.00;23.60;99889.00;;;;4993060;28;20575;-65
2024/04/06 09:18:55;;;;;;;0.30;0.30;;;21.90;93.70;23.70;99896.00;;;;4996745;28;20237;-66
2024/04/06 09:21:21;;;;;;;0.20;0.20;;;22.00;93.80;23.80;99887.00;;;;4995013;28;20220;-66
2024/04/06 09:23:51;;;;;;;0.30;0.30;;;22.10;93.80;24.00;99873.00;;;;4995675;28;20214;-63
2024/04/06 09:26:21;;;;;;;0.30;0.30;;;22.20;93.70;24.10;99866.00;;;;4992161;28;20288;-64
2024/04/06 09:28:51;;;;;;;0.30;0.30;;;22.30;93.40;24.20;99883.00;;;;4992359;28;20271;-64
2024/04/06 09:31:20;;;;;;;0.40;0.40;;;22.40;93.50;24.30;99892.00;;;;4992822;28;20217;-63
2024/04/06 09:33:52;;;;;;;0.30;0.30;;;22.60;93.40;24.50;99859.00;;;;4995466;28;20316;-64
2024/04/06 09:36:21;;;;;;;0.30;0.30;;;22.70;93.10;24.60;99851.00;;;;4988479;28;20237;-64
2024/04/06 09:38:50;;;;;;;0.30;0.30;;;22.80;93.20;24.70;99863.00;;;;4996956;28;20201;-65
2024/04/06 09:41:18;;;;;;;0.30;0.30;;;22.90;92.90;24.80;99851.00;;;;4993430;28;20225;-64
2024/04/06 09:43:49;;;;;;;0.28;0.28;;;23.00;92.90;25.00;99839.00;;;;4992658;28;20686;-63
2024/04/06 09:46:17;;;;;;;0.28;0.28;;;23.20;92.80;25.00;99850.00;;;;4995039;28;20563;-65
2024/04/06 09:48:44;;;;;;;0.35;0.35;;;23.30;92.90;25.20;99838.00;;;;4994719;28;20240;-64
2024/04/06 09:51:11;;;;;;;0.20;0.20;;;23.40;92.60;25.30;99843.00;;;;4994436;28;20521;-65
2024/04/06 09:53:40;;;;;;;0.30;0.30;;;23.50;92.50;25.40;99822.00;;;;4997040;28;20599;-64
2024/04/06 09:56:10;;;;;;;0.30;0.30;;;23.60;92.40;25.50;99842.00;;;;4994786;28;20249;-64
2024/04/06 09:58:37;;;;;;;0.30;0.30;;;23.70;92.30;25.50;99844.00;;;;4992527;28;20283;-64
2024/04/06 10:01:11;;;;;;;0.25;0.25;;;23.80;92.00;25.60;99828.00;;;;4993127;28;20213;-64
2024/04/06 10:03:44;;;;;;;0.30;0.30;;;23.90;91.30;25.70;99818.00;;;;4993852;28;20299;-64
2024/04/06 10:06:15;;;;;;;0.35;0.35;;;23.90;91.70;25.70;99837.00;;;;4991585;28;20569;-64
2024/04/06 10:08:49;;;;;;;0.20;0.20;;;24.00;90.90;25.70;99820.00;;;;4992561;28;20264;-64
2024/04/06 10:11:18;;;;;;;0.30;0.30;;;24.00;89.90;25.70;99829.00;;;;4993353;28;20247;-64
2024/04/06 10:13:54;;;;;;;0.30;0.30;;;24.10;90.20;25.70;99801.00;;;;4993515;28;20209;-65
2024/04/06 10:16:26;;;;;;;0.30;0.30;;;24.10;89.10;25.80;99818.00;;;;4990579;28;20738;-64
2024/04/06 10:18:55;;;;;;;0.30;0.30;;;24.20;88.60;25.80;99821.00;;;;4993424;28;20234;-63
2024/04/06 10:21:26;;;;;;;0.30;0.30;;;24.10;89.80;25.80;99826.00;;;;4993274;28;20328;-64
2024/04/06 10:23:54;;;;;;;0.30;0.30;;;24.20;89.90;25.90;99813.00;;;;4993544;28;20241;-64
2024/04/06 10:26:22;;;;;;;0.32;0.32;;;24.20;89.60;26.10;99824.00;;;;4991392;28;20301;-63
2024/04/06 10:28:50;;;;;;;0.30;0.30;;;24.30;90.00;26.20;99807.00;;;;4993581;28;20213;-64
2024/04/06 10:31:17;;;;;;;0.30;0.30;;;24.40;89.40;26.30;99802.00;;;;4996692;28;20284;-63
2024/04/06 10:33:45;;;;;;;0.40;0.40;;;24.50;89.10;26.30;99805.00;;;;4996316;28;20238;-63
2024/04/06 10:36:13;;;;;;;0.40;0.40;;;24.60;87.90;26.40;99803.00;;;;4994441;28;20217;-63
2024/04/06 10:38:41;;;;;;;0.32;0.32;;;24.70;87.90;26.40;99807.00;;;;4995096;28;20225;-63
2024/04/06 10:41:08;;;;;;;0.25;0.25;;;24.70;87.90;26.50;99804.00;;;;4995212;28;20233;-64
2024/04/06 10:43:37;;;;;;;0.20;0.20;;;24.70;87.10;26.60;99806.00;;;;4996747;28;20701;-63
2024/04/06 10:46:03;;;;;;;0.30;0.30;;;24.80;87.70;26.70;99799.00;;;;4996064;28;20312;-63
2024/04/06 10:48:32;;;;;;;0.20;0.20;;;24.90;87.40;26.80;99812.00;;;;4995425;28;20559;-63
2024/04/06 10:51:00;;;;;;;0.30;0.30;;;25.00;86.80;26.90;99804.00;;;;4999123;28;20222;-63
2024/04/06 10:53:28;;;;;;;0.30;0.30;;;25.10;85.10;27.00;99808.00;;;;4994923;28;20216;-64
2024/04/06 10:55:57;;;;;;;0.30;0.30;;;25.20;86.00;27.10;99802.00;;;;4996540;28;20220;-63